Terminal Aerodrome Forecast
Issued by NWS

Home | Current Version | Previous Version | Graphics & Text | Print | Product List | Glossary On
Versions: 1 2 3 4 5 6 7 8 9 10 11 12 13 14 15 16 17
998
FTUS42 KMHX 232332
TAFPGV
TAF
KPGV 232332Z 2400/2424 00000KT P6SM SCT100
      TEMPO 2404/2406 3SM BR
     FM240600 00000KT 3SM BR SCT005
     FM240800 00000KT 1SM BR OVC005
     FM241300 03005KT P6SM SCT050
      AMD LTD TO CLD VIS AND WIND=

USA.gov is the U.S. government's official web portal to all federal, state and local government web resources and services.